createdAt,value
2022-09-27T00:02:11.503Z,99703.81
2022-09-27T00:04:58.088Z,99704.59
2022-09-27T00:07:38.600Z,99700.59
2022-09-27T00:10:25.064Z,99701.38
2022-09-27T00:13:05.469Z,99701.38
2022-09-27T00:15:52.124Z,99695.78
2022-09-27T00:18:33.633Z,99699.38
2022-09-27T00:21:23.045Z,99685.78
2022-09-27T00:24:10.088Z,99687.34
2022-09-27T00:26:58.088Z,99691.38
2022-09-27T00:29:45.042Z,99704.16
2022-09-27T00:32:32.058Z,99692.94
2022-09-27T00:35:12.670Z,99692.13
2022-09-27T00:38:02.075Z,99698.94
2022-09-27T00:40:50.094Z,99700.56
2022-09-27T00:43:37.072Z,99695.72
2022-09-27T00:46:27.182Z,99696.03
2022-09-27T00:49:27.047Z,99686.06
2022-09-27T00:52:11.559Z,99687.19
2022-09-27T00:55:00.990Z,99682.00
2022-09-27T00:57:44.697Z,99688.34
2022-09-27T01:00:32.017Z,99688.34
2022-09-27T01:03:32.031Z,99689.16
2022-09-27T01:06:16.120Z,99680.34
2022-09-27T01:09:02.987Z,99682.72
2022-09-27T01:12:05.040Z,99679.97
2022-09-27T01:14:45.804Z,99673.16
2022-09-27T01:17:56.994Z,99676.72
2022-09-27T01:20:52.960Z,99670.31
2022-09-27T01:24:10.017Z,99669.13
2022-09-27T01:27:18.116Z,99659.53
2022-09-27T01:30:03.988Z,99654.78
2022-09-27T01:32:52.035Z,99653.97
2022-09-27T01:35:47.111Z,99666.34
2022-09-27T01:38:46.964Z,99662.81
2022-09-27T01:41:47.016Z,99655.66
2022-09-27T01:45:24.967Z,99661.66
2022-09-27T01:48:44.073Z,99649.38
2022-09-27T01:51:33.962Z,99654.22
2022-09-27T01:54:25.020Z,99659.03
2022-09-27T01:57:44.176Z,99650.66
2022-09-27T02:00:36.922Z,99643.09
2022-09-27T02:03:27.950Z,99643.91
2022-09-27T02:06:50.142Z,99632.31
2022-09-27T02:09:49.921Z,99625.97
2022-09-27T02:12:47.940Z,99613.94
2022-09-27T02:15:36.594Z,99620.34
2022-09-27T02:18:49.933Z,99638.66
2022-09-27T02:21:56.104Z,99642.22
2022-09-27T02:25:15.922Z,99640.31
2022-09-27T02:28:25.952Z,99651.06
2022-09-27T02:31:12.995Z,99655.44
2022-09-27T02:33:59.969Z,99646.69
2022-09-27T02:36:40.744Z,99644.72
2022-09-27T02:39:29.003Z,99643.53
2022-09-27T02:42:12.725Z,99645.94
2022-09-27T02:44:59.880Z,99647.13
2022-09-27T02:47:55.920Z,99645.53
2022-09-27T02:51:08.036Z,99639.53
2022-09-27T02:54:02.770Z,99648.75
2022-09-27T02:57:39.925Z,99646.75
2022-09-27T03:01:16.979Z,99635.56
2022-09-27T03:04:54.910Z,99637.97
2022-09-27T03:26:12.803Z,99633.38
2022-09-27T03:28:53.488Z,99633.06
2022-09-27T03:31:40.040Z,99623.53
2022-09-27T03:34:55.522Z,99619.97
2022-09-27T03:37:41.935Z,99604.47
2022-09-27T03:40:22.364Z,99587.69
2022-09-27T03:43:08.950Z,99587.28
2022-09-27T03:45:57.999Z,99584.91
2022-09-27T03:48:44.947Z,99584.06
2022-09-27T03:51:31.945Z,99582.47
2022-09-27T03:54:11.997Z,99576.50
2022-09-27T03:56:58.973Z,99571.31
2022-09-27T03:59:39.990Z,99580.91
2022-09-27T04:02:49.029Z,99583.69
2022-09-27T04:05:30.064Z,99587.25
2022-09-27T04:08:20.928Z,99586.88
2022-09-27T04:11:01.008Z,99583.28
2022-09-27T04:13:50.943Z,99576.88
2022-09-27T04:16:43.165Z,99574.88
2022-09-27T04:19:40.886Z,99572.88
2022-09-27T04:22:21.040Z,99579.69
2022-09-27T04:25:07.866Z,99577.28
2022-09-27T04:27:54.900Z,99568.50
2022-09-27T04:30:42.887Z,99574.47
2022-09-27T04:33:38.075Z,99578.47
2022-09-27T04:36:44.901Z,99582.06
2022-09-27T04:39:25.005Z,99587.25
2022-09-27T04:42:12.895Z,99592.75
2022-09-27T04:44:59.866Z,99591.91
2022-09-27T04:47:47.607Z,99601.06
2022-09-27T04:50:36.506Z,99589.44
2022-09-27T04:53:23.870Z,99592.63
2022-09-27T04:56:12.843Z,99597.03
2022-09-27T04:58:54.018Z,99587.44
2022-09-27T05:01:40.956Z,99586.94
2022-09-27T05:04:41.232Z,99591.59
2022-09-27T05:07:28.859Z,99585.81
2022-09-27T05:10:13.414Z,99586.63
2022-09-27T05:12:59.900Z,99593.31
2022-09-27T05:15:46.871Z,99594.69
2022-09-27T05:18:52.899Z,99581.91
2022-09-27T05:22:15.855Z,99576.34
2022-09-27T05:25:02.850Z,99575.81
2022-09-27T05:27:43.365Z,99585.53
2022-09-27T05:30:30.859Z,99597.34
2022-09-27T05:33:15.218Z,99591.59
2022-09-27T05:36:08.830Z,99603.50
2022-09-27T05:38:49.586Z,99597.69
2022-09-27T05:41:38.930Z,99603.81
2022-09-27T05:44:19.266Z,99598.75
2022-09-27T05:47:14.836Z,99582.91
2022-09-27T05:50:02.805Z,99573.34
2022-09-27T05:52:42.929Z,99556.03
2022-09-27T05:55:31.731Z,99552.50
2022-09-27T05:58:16.342Z,99565.53
2022-09-27T06:01:08.790Z,99570.81
2022-09-27T06:04:21.767Z,99580.22
2022-09-27T06:07:28.766Z,99576.28
2022-09-27T06:10:19.842Z,99571.94
2022-09-27T06:13:12.786Z,99561.97
2022-09-27T06:15:59.722Z,99562.06
2022-09-27T06:18:42.805Z,99561.22
2022-09-27T06:21:30.757Z,99565.00
2022-09-27T06:24:24.781Z,99571.56
2022-09-27T06:27:17.726Z,99563.25
2022-09-27T06:30:16.899Z,99557.84
2022-09-27T06:33:08.764Z,99577.69
2022-09-27T06:35:54.897Z,99575.69
2022-09-27T06:38:42.738Z,99565.56
2022-09-27T06:41:36.239Z,99570.22
2022-09-27T06:44:33.716Z,99557.38
2022-09-27T06:47:38.743Z,99547.22
2022-09-27T06:50:46.751Z,99543.25
2022-09-27T06:53:26.890Z,99540.81
2022-09-27T06:56:13.714Z,99560.72
2022-09-27T06:59:14.555Z,99559.81
2022-09-27T07:02:01.746Z,99559.44
2022-09-27T07:05:12.855Z,99544.63
2022-09-27T07:08:12.703Z,99542.31
2022-09-27T07:10:53.719Z,99546.06
2022-09-27T07:13:43.686Z,99536.63
2022-09-27T07:16:24.245Z,99536.38
2022-09-27T07:19:13.758Z,99533.41
2022-09-27T07:22:04.705Z,99537.56
2022-09-27T07:24:51.695Z,99532.94
2022-09-27T07:27:39.694Z,99546.56
2022-09-27T07:30:21.399Z,99543.28
2022-09-27T07:33:17.707Z,99544.78
2022-09-27T07:35:58.092Z,99531.84
2022-09-27T07:38:45.684Z,99528.06
2022-09-27T07:41:27.092Z,99534.81
2022-09-27T07:44:14.675Z,99537.53
2022-09-27T07:47:25.638Z,99545.25
2022-09-27T07:50:28.679Z,99554.09
2022-09-27T07:53:38.666Z,99539.22
2022-09-27T07:56:37.851Z,99540.50
2022-09-27T07:59:25.648Z,99536.28
2022-09-27T08:02:13.728Z,99527.03
2022-09-27T08:04:55.082Z,99528.63
2022-09-27T08:07:42.671Z,99530.34
2022-09-27T08:10:26.071Z,99526.13
2022-09-27T08:13:14.642Z,99527.56
2022-09-27T08:16:08.700Z,99531.09
2022-09-27T08:19:26.851Z,99524.25
2022-09-27T08:22:40.651Z,99502.88
2022-09-27T08:25:48.631Z,99502.50
2022-09-27T08:28:55.145Z,99485.38
2022-09-27T08:31:44.728Z,99484.81
2022-09-27T08:34:26.194Z,99488.13
2022-09-27T08:37:12.693Z,99483.69
2022-09-27T08:39:53.004Z,99483.91
2022-09-27T08:42:49.649Z,99489.91
2022-09-27T08:45:39.129Z,99490.72
2022-09-27T08:48:26.644Z,99495.31
2022-09-27T08:51:13.308Z,99492.94
2022-09-27T08:54:06.630Z,99492.47
2022-09-27T08:56:49.479Z,99478.97
2022-09-27T08:59:42.592Z,99488.53
2022-09-27T09:02:26.226Z,99484.66
2022-09-27T09:05:46.591Z,99481.91
2022-09-27T09:08:46.285Z,99473.78
2022-09-27T09:12:16.624Z,99472.59
2022-09-27T09:15:06.601Z,99469.19
2022-09-27T09:18:22.606Z,99469.28
2022-09-27T09:21:30.674Z,99478.97
2022-09-27T09:24:20.637Z,99470.84
2022-09-27T09:27:23.729Z,99475.50
2022-09-27T09:30:19.645Z,99476.72
2022-09-27T09:33:23.265Z,99481.75
2022-09-27T09:36:09.648Z,99472.13
2022-09-27T09:39:01.726Z,99490.25
2022-09-27T09:42:17.603Z,99485.34
2022-09-27T09:45:04.063Z,99484.31
2022-09-27T09:47:52.602Z,99485.47
2022-09-27T09:50:48.614Z,99483.22
2022-09-27T09:53:51.788Z,99477.91
2022-09-27T09:56:52.541Z,99484.84
2022-09-27T09:59:44.521Z,99476.06
2022-09-27T10:02:44.534Z,99471.09
2022-09-27T10:05:40.601Z,99467.88
2022-09-27T10:08:24.319Z,99462.72
2022-09-27T10:11:40.519Z,99442.25
2022-09-27T10:14:33.713Z,99442.81
2022-09-27T10:17:21.539Z,99432.28
2022-09-27T10:20:06.855Z,99439.84
2022-09-27T10:22:54.543Z,99443.75
2022-09-27T10:26:03.520Z,99434.84
2022-09-27T10:28:56.624Z,99418.91
2022-09-27T10:31:54.594Z,99418.06
2022-09-27T10:34:47.585Z,99412.97
2022-09-27T10:37:34.503Z,99417.97
2022-09-27T10:40:35.439Z,99417.31
2022-09-27T10:43:34.514Z,99410.81
2022-09-27T10:46:36.610Z,99402.56
2022-09-27T10:49:47.480Z,99392.94
2022-09-27T10:52:53.621Z,99391.63
2022-09-27T10:55:44.509Z,99379.38
2022-09-27T10:58:34.655Z,99383.09
2022-09-27T11:01:25.514Z,99373.28
2022-09-27T11:04:38.587Z,99362.19
2022-09-27T11:07:23.399Z,99368.06
2022-09-27T11:10:39.494Z,99368.22
2022-09-27T11:13:27.463Z,99369.81
2022-09-27T11:16:52.538Z,99370.63
2022-09-27T11:20:03.457Z,99372.09
2022-09-27T11:23:16.475Z,99376.41
2022-09-27T11:26:51.466Z,99371.44
2022-09-27T11:29:46.609Z,99367.72
2022-09-27T11:33:31.451Z,99379.09
2022-09-27T11:36:21.461Z,99357.09
2022-09-27T11:39:37.475Z,99351.50
2022-09-27T11:42:52.552Z,99349.50
2022-09-27T11:49:10.520Z,99344.41
2022-09-27T11:52:23.428Z,99346.00
2022-09-27T11:55:36.556Z,99323.06
2022-09-27T11:58:27.709Z,99322.63
2022-09-27T12:02:04.484Z,99331.31
2022-09-27T12:05:04.454Z,99321.84
2022-09-27T12:08:04.410Z,99321.56
2022-09-27T12:10:57.478Z,99315.50
2022-09-27T12:13:48.692Z,99296.84
2022-09-27T12:16:38.441Z,99303.50
2022-09-27T12:19:30.488Z,99315.59
2022-09-27T12:22:46.712Z,99309.75
2022-09-27T12:25:32.401Z,99301.88
2022-09-27T12:28:51.188Z,99309.78
2022-09-27T12:32:04.409Z,99309.28
2022-09-27T12:35:00.410Z,99310.00
2022-09-27T12:37:45.863Z,99315.41
2022-09-27T12:40:37.409Z,99312.75
2022-09-27T12:43:33.490Z,99307.09
2022-09-27T12:46:43.412Z,99304.84
2022-09-27T12:49:30.384Z,99306.91
2022-09-27T12:52:14.748Z,99292.75
2022-09-27T12:55:33.378Z,99285.75
2022-09-27T12:58:33.662Z,99297.03
2022-09-27T13:01:24.425Z,99288.41
2022-09-27T13:04:14.690Z,99308.47
2022-09-27T13:07:37.351Z,99289.97
2022-09-27T13:10:56.380Z,99302.75
2022-09-27T13:13:42.519Z,99296.88
2022-09-27T13:16:32.445Z,99296.78
2022-09-27T13:19:21.107Z,99304.81
2022-09-27T13:22:33.357Z,99295.84
2022-09-27T13:26:04.358Z,99301.63
2022-09-27T13:28:55.351Z,99292.28
2022-09-27T13:32:08.341Z,99302.34
2022-09-27T13:35:32.406Z,99311.00
2022-09-27T13:38:30.438Z,99317.91
2022-09-27T13:41:23.347Z,99318.41
2022-09-27T13:44:17.612Z,99316.16
2022-09-27T13:47:13.317Z,99315.84
2022-09-27T13:49:56.461Z,99311.38
2022-09-27T13:53:09.330Z,99306.81
2022-09-27T13:56:04.287Z,99307.66
2022-09-27T13:59:01.590Z,99306.44
2022-09-27T14:02:00.336Z,99311.38
2022-09-27T14:04:58.330Z,99309.78
2022-09-27T14:07:48.431Z,99299.47
2022-09-27T14:10:37.282Z,99291.81
2022-09-27T14:13:24.409Z,99296.84
2022-09-27T14:16:23.285Z,99297.00
2022-09-27T14:19:04.408Z,99300.03
2022-09-27T14:21:53.399Z,99295.03
2022-09-27T14:25:00.271Z,99292.66
2022-09-27T14:27:51.262Z,99291.84
2022-09-27T14:30:37.389Z,99282.00
2022-09-27T14:33:46.267Z,99292.91
2022-09-27T14:36:56.881Z,99290.84
2022-09-27T14:39:48.283Z,99289.31
2022-09-27T14:42:45.256Z,99302.47
2022-09-27T14:45:47.298Z,99296.19
2022-09-27T14:48:44.257Z,99295.94
2022-09-27T14:51:37.271Z,99293.41
2022-09-27T14:54:33.202Z,99290.06
2022-09-27T14:57:24.245Z,99301.41
2022-09-27T15:00:12.260Z,99301.84
2022-09-27T15:03:02.338Z,99298.13
2022-09-27T15:05:50.269Z,99293.44
2022-09-27T15:08:34.076Z,99291.03
2022-09-27T15:27:52.636Z,99328.28
2022-09-27T15:30:42.627Z,99335.06
2022-09-27T15:33:41.637Z,99320.25
2022-09-27T15:36:51.375Z,99319.25
2022-09-27T15:39:47.627Z,99311.97
2022-09-27T15:42:28.020Z,99321.16
2022-09-27T15:45:14.638Z,99325.16
2022-09-27T15:48:01.587Z,99327.50
2022-09-27T15:50:49.575Z,99330.66
2022-09-27T15:53:35.848Z,99342.09
2022-09-27T15:56:26.589Z,99336.50
2022-09-27T15:59:20.787Z,99339.25
2022-09-27T16:02:12.641Z,99338.38
2022-09-27T16:04:52.968Z,99332.28
2022-09-27T16:07:39.576Z,99338.28
2022-09-27T16:10:29.884Z,99337.88
2022-09-27T16:13:16.533Z,99320.56
2022-09-27T16:16:03.679Z,99317.72
2022-09-27T16:18:50.535Z,99322.09
2022-09-27T16:21:38.550Z,99313.28
2022-09-27T16:24:19.695Z,99316.81
2022-09-27T16:27:06.531Z,99315.38
2022-09-27T16:29:46.725Z,99322.66
2022-09-27T16:32:33.545Z,99312.97
2022-09-27T16:35:17.806Z,99308.16
2022-09-27T16:38:04.574Z,99325.19
2022-09-27T16:40:44.692Z,99317.31
2022-09-27T16:43:33.557Z,99313.06
2022-09-27T16:46:18.822Z,99316.94
2022-09-27T16:49:05.583Z,99316.31
2022-09-27T16:52:00.693Z,99312.47
2022-09-27T16:54:47.541Z,99314.50
2022-09-27T16:57:37.527Z,99308.66
2022-09-27T17:00:18.687Z,99304.78
2022-09-27T17:03:05.553Z,99320.84
2022-09-27T17:05:45.897Z,99318.09
2022-09-27T17:08:32.497Z,99314.41
2022-09-27T17:11:23.500Z,99321.81
2022-09-27T17:14:10.523Z,99323.94
2022-09-27T17:16:51.395Z,99328.56
2022-09-27T17:19:38.495Z,99325.63
2022-09-27T17:22:19.013Z,99321.16
2022-09-27T17:25:05.499Z,99325.41
2022-09-27T17:27:52.630Z,99314.50
2022-09-27T17:30:32.489Z,99310.41
2022-09-27T17:33:19.540Z,99303.75
2022-09-27T17:36:08.638Z,99304.28
2022-09-27T17:38:56.490Z,99296.06
2022-09-27T17:41:45.529Z,99297.53
2022-09-27T17:44:27.167Z,99299.09
2022-09-27T17:47:32.477Z,99299.16
2022-09-27T17:50:33.471Z,99296.19
2022-09-27T17:53:20.480Z,99303.75
2022-09-27T17:56:07.609Z,99304.09
2022-09-27T17:58:58.446Z,99306.28
2022-09-27T18:01:46.591Z,99302.53
2022-09-27T18:04:26.819Z,99293.38
2022-09-27T18:07:13.474Z,99313.06
2022-09-27T18:09:53.859Z,99324.00
2022-09-27T18:12:43.461Z,99326.31
2022-09-27T18:15:23.851Z,99322.63
2022-09-27T18:18:11.422Z,99328.19
2022-09-27T18:20:51.821Z,99338.38
2022-09-27T18:23:38.404Z,99337.19
2022-09-27T18:26:26.485Z,99339.97
2022-09-27T18:29:09.573Z,99347.00
2022-09-27T18:31:56.455Z,99344.34
2022-09-27T18:34:43.446Z,99350.09
2022-09-27T18:37:23.781Z,99370.75
2022-09-27T18:40:10.434Z,99384.88
2022-09-27T18:42:57.434Z,99378.38
2022-09-27T18:45:38.155Z,99376.06
2022-09-27T18:48:24.413Z,99370.75
2022-09-27T18:51:04.523Z,99380.81
2022-09-27T18:53:52.448Z,99384.50
2022-09-27T18:56:39.429Z,99386.50
2022-09-27T18:59:28.422Z,99388.53
2022-09-27T19:02:15.469Z,99404.88
2022-09-27T19:05:02.414Z,99411.59
2022-09-27T19:07:42.727Z,99411.03
2022-09-27T19:10:29.402Z,99408.94
2022-09-27T19:13:09.508Z,99426.50
2022-09-27T19:16:04.438Z,99422.22
2022-09-27T19:18:53.421Z,99440.34
2022-09-27T19:21:40.424Z,99437.66
2022-09-27T19:24:20.979Z,99460.22
2022-09-27T19:27:07.337Z,99459.25
2022-09-27T19:29:54.395Z,99459.53
2022-09-27T19:32:34.744Z,99460.19
2022-09-27T19:35:21.371Z,99454.72
2022-09-27T19:38:08.393Z,99471.66
2022-09-27T19:40:48.529Z,99468.66
2022-09-27T19:43:37.380Z,99460.69
2022-09-27T19:46:29.406Z,99453.19
2022-09-27T19:49:16.464Z,99412.88
2022-09-27T19:51:56.491Z,99417.69
2022-09-27T19:54:43.353Z,99416.88
2022-09-27T19:57:32.705Z,99426.50
2022-09-27T20:00:12.908Z,99430.03
2022-09-27T20:02:59.462Z,99426.06
2022-09-27T20:05:41.844Z,99413.72
2022-09-27T20:08:28.304Z,99423.69
2022-09-27T20:11:11.798Z,99402.53
2022-09-27T20:13:58.330Z,99411.72
2022-09-27T20:16:45.547Z,99405.72
2022-09-27T20:19:26.465Z,99418.50
2022-09-27T20:22:06.707Z,99426.50
2022-09-27T20:24:53.309Z,99444.41
2022-09-27T20:27:47.304Z,99458.38
2022-09-27T20:30:34.328Z,99472.72
2022-09-27T20:33:34.913Z,99478.75
2022-09-27T20:36:36.285Z,99485.50
2022-09-27T20:39:29.309Z,99487.09
2022-09-27T20:42:16.316Z,99486.69
2022-09-27T20:44:56.431Z,99499.03
2022-09-27T20:47:45.303Z,99509.44
2022-09-27T20:50:25.434Z,99499.44
2022-09-27T20:53:12.304Z,99515.41
2022-09-27T20:55:52.451Z,99518.56
2022-09-27T20:58:39.299Z,99513.34
2022-09-27T21:01:20.510Z,99524.84
2022-09-27T21:04:09.285Z,99532.84
2022-09-27T21:06:57.320Z,99524.84
2022-09-27T21:09:38.843Z,99542.75
2022-09-27T21:12:25.281Z,99529.56
2022-09-27T21:15:12.413Z,99526.31
2022-09-27T21:17:52.285Z,99525.09
2022-09-27T21:20:32.654Z,99519.16
2022-09-27T21:23:19.244Z,99504.84
2022-09-27T21:26:43.227Z,99486.50
2022-09-27T21:29:24.217Z,99473.72
2022-09-27T21:32:11.206Z,99455.81
2022-09-27T21:34:51.366Z,99455.81
2022-09-27T21:37:39.113Z,99451.84
2022-09-27T21:40:19.770Z,99461.41
2022-09-27T21:43:06.255Z,99478.84
2022-09-27T21:45:53.206Z,99480.09
2022-09-27T21:48:41.245Z,99453.38
2022-09-27T21:51:24.502Z,99459.75
2022-09-27T21:54:15.257Z,99466.53
2022-09-27T21:57:02.215Z,99466.97
2022-09-27T21:59:49.175Z,99460.59
2022-09-27T22:02:30.082Z,99460.16
2022-09-27T22:05:17.172Z,99467.75
2022-09-27T22:08:04.224Z,99439.91
2022-09-27T22:10:52.206Z,99443.84
2022-09-27T22:13:34.322Z,99469.25
2022-09-27T22:16:23.284Z,99481.56
2022-09-27T22:19:04.291Z,99483.44
2022-09-27T22:21:51.203Z,99475.84
2022-09-27T22:24:31.322Z,99471.78
2022-09-27T22:27:18.202Z,99474.94
2022-09-27T22:30:05.258Z,99480.50
2022-09-27T22:32:45.847Z,99475.38
2022-09-27T22:35:33.214Z,99470.53
2022-09-27T22:38:13.671Z,99445.88
2022-09-27T22:41:08.194Z,99436.25
2022-09-27T22:43:55.173Z,99441.78
2022-09-27T22:46:35.763Z,99441.34
2022-09-27T22:49:22.154Z,99431.38
2022-09-27T22:52:02.303Z,99429.38
2022-09-27T22:54:49.170Z,99431.03
2022-09-27T22:57:29.214Z,99427.78
2022-09-27T23:00:17.159Z,99425.00
2022-09-27T23:03:01.290Z,99436.59
2022-09-27T23:05:48.152Z,99451.69
2022-09-27T23:08:28.301Z,99462.47
2022-09-27T23:11:16.104Z,99449.41
2022-09-27T23:14:04.153Z,99451.00
2022-09-27T23:16:44.574Z,99452.59
2022-09-27T23:19:33.111Z,99449.72
2022-09-27T23:22:20.143Z,99440.19
2022-09-27T23:25:01.069Z,99442.97
2022-09-27T23:27:54.108Z,99460.03
2022-09-27T23:30:41.106Z,99461.66
2022-09-27T23:33:29.136Z,99464.41
2022-09-27T23:36:10.517Z,99461.28
2022-09-27T23:38:57.107Z,99482.28
2022-09-27T23:41:37.157Z,99474.69
2022-09-27T23:44:24.097Z,99483.06
2022-09-27T23:47:04.303Z,99489.78
2022-09-27T23:49:51.041Z,99488.94
2022-09-27T23:52:31.198Z,99503.63
2022-09-27T23:55:19.060Z,99507.84
2022-09-27T23:57:59.220Z,99503.03
